Time;durP1;ratioP1;P1;durP2;ratioP2;P2;SDS_P1;SDS_P2;PMS_P1;PMS_P2;Temp;Humidity;BMP_temperature;BMP_pressure;BME280_temperature;BME280_humidity;BME280_pressure;Samples;Min_cycle;Max_cycle;Signal;HPM_P1;HPM_P2
2022/11/30 00:01:23;;;;;;;52.40;22.42;;;;;;;4.55;100.00;101444.13;5068984;28;20055;-76
2022/11/30 00:03:55;;;;;;;51.58;22.70;;;;;;;4.57;100.00;101442.47;5066566;28;20121;-77
2022/11/30 00:06:24;;;;;;;39.72;18.65;;;;;;;4.57;100.00;101438.16;5068327;28;20040;-76
2022/11/30 00:08:58;;;;;;;49.78;21.83;;;;;;;4.59;100.00;101444.25;5068042;28;20048;-76
2022/11/30 00:11:28;;;;;;;53.35;23.13;;;;;;;4.61;100.00;101444.31;5051625;28;20052;-76
2022/11/30 00:13:55;;;;;;;52.20;22.67;;;;;;;4.58;100.00;101445.09;5064284;28;20043;-75
2022/11/30 00:16:22;;;;;;;52.47;22.63;;;;;;;4.59;100.00;101440.81;5068790;28;20054;-75
2022/11/30 00:18:49;;;;;;;54.03;23.08;;;;;;;4.62;100.00;101446.06;5069984;28;20036;-77
2022/11/30 00:21:17;;;;;;;46.33;22.50;;;;;;;4.60;100.00;101450.31;5069996;28;20040;-77
2022/11/30 00:23:46;;;;;;;54.30;23.40;;;;;;;4.58;100.00;101446.81;5102881;27;20056;-79
2022/11/30 00:26:21;;;;;;;56.80;23.70;;;;;;;4.58;100.00;101454.59;5070996;28;20048;-77
2022/11/30 00:28:47;;;;;;;41.67;20.90;;;;;;;4.54;100.00;101460.53;5084343;28;20566;-77
2022/11/30 00:31:17;;;;;;;51.58;23.52;;;;;;;4.52;100.00;101457.88;5073064;28;20052;-76
2022/11/30 00:33:44;;;;;;;58.97;23.48;;;;;;;4.47;100.00;101446.50;5073584;28;20063;-78
2022/11/30 00:36:15;;;;;;;52.67;25.33;;;;;;;4.44;100.00;101454.19;5071616;28;20449;-76
2022/11/30 00:38:41;;;;;;;53.05;23.85;;;;;;;4.43;100.00;101450.72;5073132;28;20166;-76
2022/11/30 00:41:15;;;;;;;50.55;22.65;;;;;;;4.40;100.00;101452.34;5057224;28;20050;-77
2022/11/30 00:43:42;;;;;;;51.17;21.52;;;;;;;4.39;100.00;101453.19;5080889;28;20486;-76
2022/11/30 00:46:09;;;;;;;52.22;22.73;;;;;;;4.41;100.00;101454.13;5054896;28;20060;-78
2022/11/30 00:48:41;;;;;;;48.92;21.33;;;;;;;4.41;100.00;101451.53;5073208;28;20225;-76
2022/11/30 00:51:10;;;;;;;50.75;23.42;;;;;;;4.37;100.00;101450.53;5061158;28;20059;-76
2022/11/30 00:53:41;;;;;;;57.75;24.42;;;;;;;4.37;100.00;101447.94;5052296;28;20040;-76
2022/11/30 00:56:09;;;;;;;53.70;22.23;;;;;;;4.38;100.00;101451.41;5062886;28;20046;-76
2022/11/30 00:58:38;;;;;;;57.70;22.67;;;;;;;4.35;100.00;101447.00;5058265;28;20461;-76
2022/11/30 01:01:06;;;;;;;36.97;19.38;;;;;;;4.34;100.00;101454.75;5072697;28;20744;-77
2022/11/30 01:06:34;;;;;;;37.97;18.48;;;;;;;4.35;100.00;101452.19;5073326;28;20043;-76
2022/11/30 01:09:23;;;;;;;43.08;20.60;;;;;;;4.34;100.00;101447.88;5071626;28;20044;-77
2022/11/30 01:11:56;;;;;;;39.55;19.27;;;;;;;4.36;100.00;101451.38;5071639;28;20078;-76
2022/11/30 01:14:49;;;;;;;53.72;22.90;;;;;;;4.35;100.00;101457.38;5073290;28;20041;-77
2022/11/30 01:17:17;;;;;;;33.67;18.50;;;;;;;4.33;100.00;101453.88;5071112;28;20577;-76
2022/11/30 01:19:44;;;;;;;39.22;18.30;;;;;;;4.33;100.00;101453.88;5070343;28;20454;-76
2022/11/30 01:22:32;;;;;;;43.05;19.02;;;;;;;4.32;100.00;101459.91;5072921;28;20048;-77
2022/11/30 01:25:02;;;;;;;48.83;21.75;;;;;;;4.31;100.00;101458.13;5064679;28;20039;-77
2022/11/30 01:27:46;;;;;;;41.72;20.02;;;;;;;4.31;100.00;101460.72;5064132;28;20075;-76
2022/11/30 01:30:15;;;;;;;41.53;18.10;;;;;;;4.30;100.00;101459.84;5046197;28;20064;-76
2022/11/30 01:32:42;;;;;;;43.80;19.17;;;;;;;4.30;100.00;101454.69;5065613;28;20032;-76
2022/11/30 01:35:09;;;;;;;42.28;19.55;;;;;;;4.31;100.00;101458.13;5068449;28;20032;-79
2022/11/30 01:37:36;;;;;;;46.17;18.92;;;;;;;4.32;100.00;101459.91;5065118;28;20048;-77
2022/11/30 01:40:03;;;;;;;41.83;19.67;;;;;;;4.35;100.00;101453.94;5068905;28;20054;-79
2022/11/30 01:42:31;;;;;;;38.00;19.15;;;;;;;4.37;100.00;101454.81;5066790;28;20032;-76
2022/11/30 01:45:01;;;;;;;37.13;18.35;;;;;;;4.38;100.00;101461.78;5069009;28;20051;-76
2022/11/30 01:47:36;;;;;;;37.75;21.58;;;;;;;4.38;100.00;101457.50;5070518;28;20040;-76
2022/11/30 01:50:13;;;;;;;47.50;20.63;;;;;;;4.38;100.00;101466.97;5050145;28;20067;-77
2022/11/30 01:52:43;;;;;;;41.83;19.98;;;;;;;4.34;100.00;101466.03;5068534;28;20060;-76
2022/11/30 01:55:21;;;;;;;45.25;21.38;;;;;;;4.35;100.00;101461.69;5067383;28;20509;-78
2022/11/30 01:57:54;;;;;;;38.55;19.33;;;;;;;4.33;100.00;101469.44;5085232;28;20593;-77
2022/11/30 02:00:21;;;;;;;42.88;19.00;;;;;;;4.33;100.00;101465.94;5067185;28;20050;-78
2022/11/30 02:02:55;;;;;;;45.15;19.85;;;;;;;4.34;100.00;101468.63;5070458;28;20044;-77
2022/11/30 02:05:22;;;;;;;46.03;21.92;;;;;;;4.34;100.00;101465.13;5086699;28;20482;-78
2022/11/30 02:07:48;;;;;;;41.70;18.05;;;;;;;4.32;100.00;101459.91;5053072;28;20044;-77
2022/11/30 02:10:22;;;;;;;40.60;18.83;;;;;;;4.33;100.00;101463.34;5066905;28;20044;-78
2022/11/30 02:13:11;;;;;;;47.30;19.67;;;;;;;4.33;100.00;101465.94;5084480;28;20175;-78
2022/11/30 02:16:06;;;;;;;43.70;20.55;;;;;;;4.31;100.00;101460.72;5072837;28;20036;-77
2022/11/30 02:19:12;;;;;;;;;;;;;;;4.26;100.00;101462.31;5073581;28;20478;-78
2022/11/30 02:21:51;;;;;;;;;;;;;;;4.27;100.00;101459.75;5033346;28;19989;-75
2022/11/30 02:24:40;;;;;;;46.67;16.63;;;;;;;4.28;100.00;101466.69;5059816;28;19967;-76
2022/11/30 02:27:43;;;;;;;32.05;16.42;;;;;;;4.28;100.00;101469.28;5080583;28;20200;-76
2022/11/30 02:30:15;;;;;;;44.20;17.85;;;;;;;4.28;100.00;101465.84;5084027;28;20624;-76
2022/11/30 02:32:58;;;;;;;38.42;17.60;;;;;;;4.29;100.00;101459.81;5084973;28;20117;-76
2022/11/30 02:35:31;;;;;;;41.72;18.55;;;;;;;4.31;100.00;101465.91;5083499;28;20052;-77
2022/11/30 02:38:01;;;;;;;35.07;17.97;;;;;;;4.28;100.00;101456.31;5081624;28;20491;-77
2022/11/30 02:40:28;;;;;;;34.00;16.02;;;;;;;4.29;100.00;101459.81;5101735;28;20048;-77
2022/11/30 02:42:57;;;;;;;37.47;17.80;;;;;;;4.28;100.00;101465.84;5080864;28;20054;-76
2022/11/30 02:45:38;;;;;;;42.53;16.95;;;;;;;4.26;100.00;101459.72;5063578;28;20048;-77
2022/11/30 02:48:10;;;;;;;35.28;15.65;;;;;;;4.26;100.00;101452.81;5084382;28;20554;-77
2022/11/30 02:50:44;;;;;;;41.70;17.52;;;;;;;4.27;100.00;101457.16;5084889;28;20058;-76
2022/11/30 02:53:10;;;;;;;35.83;17.05;;;;;;;4.29;100.00;101463.28;5082430;28;20059;-76
2022/11/30 02:55:37;;;;;;;34.67;17.95;;;;;;;4.29;100.00;101455.50;5082860;28;20051;-78
2022/11/30 02:58:05;;;;;;;35.78;15.68;;;;;;;4.33;100.00;101453.88;5083454;28;20052;-77
2022/11/30 03:00:32;;;;;;;34.25;15.70;;;;;;;4.36;100.00;101464.34;5077953;28;20521;-76
2022/11/30 03:02:58;;;;;;;34.60;16.48;;;;;;;4.36;100.00;101461.75;5079343;28;20082;-76
2022/11/30 03:05:25;;;;;;;34.55;16.05;;;;;;;4.34;100.00;101468.63;5076876;28;20050;-76
2022/11/30 03:07:51;;;;;;;36.40;16.90;;;;;;;4.33;100.00;101469.44;5080560;28;20125;-76
2022/11/30 03:10:18;;;;;;;31.58;16.02;;;;;;;4.33;100.00;101463.34;5082291;28;20062;-78
2022/11/30 03:12:45;;;;;;;35.75;15.80;;;;;;;4.33;100.00;101464.25;5082385;28;20060;-76
2022/11/30 03:15:11;;;;;;;30.58;14.43;;;;;;;4.33;100.00;101465.94;5085928;28;20048;-77
2022/11/30 03:17:38;;;;;;;32.88;16.20;;;;;;;4.31;100.00;101463.31;5084448;28;20044;-78
2022/11/30 03:20:06;;;;;;;30.55;15.60;;;;;;;4.31;100.00;101473.69;5085594;28;20036;-77
2022/11/30 03:22:32;;;;;;;31.02;15.23;;;;;;;4.32;100.00;101477.19;5080682;28;20054;-76
2022/11/30 03:24:59;;;;;;;33.80;14.07;;;;;;;4.37;100.00;101475.56;5062901;28;20071;-75
2022/11/30 03:27:25;;;;;;;27.90;14.65;;;;;;;4.37;100.00;101472.97;5066515;28;20390;-77
2022/11/30 03:29:52;;;;;;;29.90;14.10;;;;;;;4.40;100.00;101476.53;5063276;28;20040;-76
2022/11/30 03:32:21;;;;;;;21.65;13.05;;;;;;;4.40;100.00;101478.28;5052521;28;20498;-76
2022/11/30 03:34:48;;;;;;;22.17;12.85;;;;;;;4.41;100.00;101483.50;5067618;28;20040;-76
2022/11/30 03:37:14;;;;;;;26.83;13.95;;;;;;;4.38;100.00;101483.41;5057622;28;20494;-76
2022/11/30 03:39:41;;;;;;;31.52;15.82;;;;;;;4.32;100.00;101480.63;5063218;28;20040;-76
2022/11/30 03:42:08;;;;;;;28.48;14.30;;;;;;;4.29;100.00;101485.75;5080903;28;20040;-76
2022/11/30 03:44:34;;;;;;;29.33;14.43;;;;;;;4.28;100.00;101489.16;5065980;28;20138;-79
2022/11/30 03:47:01;;;;;;;23.13;12.35;;;;;;;4.26;100.00;101488.22;5067508;28;20036;-77
2022/11/30 03:49:27;;;;;;;26.63;12.93;;;;;;;4.29;100.00;101494.38;5065260;28;20038;-76
2022/11/30 03:51:54;;;;;;;32.63;14.80;;;;;;;4.32;100.00;101495.31;5066577;28;20040;-77
2022/11/30 03:54:20;;;;;;;30.02;15.27;;;;;;;4.30;100.00;101500.44;5067500;28;20044;-77
2022/11/30 03:56:47;;;;;;;28.20;14.55;;;;;;;4.29;100.00;101499.56;5083648;28;20082;-75
2022/11/30 03:59:13;;;;;;;26.13;13.63;;;;;;;4.29;100.00;101496.09;5067930;28;20679;-77
2022/11/30 04:01:40;;;;;;;27.88;13.07;;;;;;;4.29;100.00;101493.50;5063562;28;20072;-75
2022/11/30 04:04:07;;;;;;;27.90;14.13;;;;;;;4.30;100.00;101496.16;5081955;28;20040;-77
2022/11/30 04:06:34;;;;;;;23.65;12.85;;;;;;;4.23;100.00;101498.50;5060972;28;20036;-76
2022/11/30 04:09:01;;;;;;;30.08;14.82;;;;;;;4.25;100.00;101499.41;5047230;28;20085;-78
2022/11/30 04:11:28;;;;;;;27.88;13.27;;;;;;;4.26;100.00;101502.06;5062712;28;20051;-76
2022/11/30 04:13:54;;;;;;;24.30;13.73;;;;;;;4.30;100.00;101501.34;5067385;28;20044;-78
2022/11/30 04:16:21;;;;;;;23.33;12.55;;;;;;;4.33;100.00;101503.13;5067103;28;20501;-77
2022/11/30 04:18:48;;;;;;;28.60;13.90;;;;;;;4.34;100.00;101512.69;5064209;28;20561;-78
2022/11/30 04:21:15;;;;;;;26.67;15.18;;;;;;;4.31;100.00;101509.97;5063349;28;20056;-76
2022/11/30 04:23:42;;;;;;;21.30;12.93;;;;;;;4.30;100.00;101515.97;5066765;28;20510;-76
2022/11/30 04:26:14;;;;;;;31.10;14.52;;;;;;;4.27;100.00;101521.09;5064821;28;20036;-77
2022/11/30 04:28:41;;;;;;;24.48;14.05;;;;;;;4.29;100.00;101516.84;5065125;28;20054;-76
2022/11/30 04:31:08;;;;;;;27.55;14.25;;;;;;;4.28;100.00;101513.34;5047774;28;20130;-76
2022/11/30 04:33:35;;;;;;;26.42;13.88;;;;;;;4.27;100.00;101521.94;5066716;28;20036;-78
2022/11/30 04:36:05;;;;;;;25.30;13.45;;;;;;;4.26;100.00;101520.22;5065987;28;20050;-77
2022/11/30 04:38:33;;;;;;;27.25;14.70;;;;;;;4.28;100.00;101523.72;5049203;28;20040;-76
2022/11/30 04:40:59;;;;;;;29.83;14.52;;;;;;;4.27;100.00;101514.19;5064067;28;20043;-76
2022/11/30 04:43:27;;;;;;;20.30;12.73;;;;;;;4.25;100.00;101510.69;5067069;28;20060;-75
2022/11/30 04:45:53;;;;;;;25.40;14.40;;;;;;;4.26;100.00;101519.31;5063477;28;20407;-78
2022/11/30 04:48:22;;;;;;;30.45;14.20;;;;;;;4.25;100.00;101522.72;5063164;28;20054;-77
2022/11/30 04:50:48;;;;;;;28.48;14.18;;;;;;;4.25;100.00;101518.44;5061861;28;20051;-77
2022/11/30 04:53:15;;;;;;;29.83;14.27;;;;;;;4.27;100.00;101521.09;5065213;28;20492;-77
2022/11/30 04:55:42;;;;;;;26.27;14.35;;;;;;;4.28;100.00;101517.66;5064140;28;20044;-79
2022/11/30 04:58:08;;;;;;;26.70;15.90;;;;;;;4.27;100.00;101527.13;5064606;28;20223;-78
2022/11/30 05:00:36;;;;;;;25.20;14.18;;;;;;;4.24;100.00;101521.88;5057771;28;20040;-77
2022/11/30 05:03:06;;;;;;;30.90;15.77;;;;;;;4.25;100.00;101528.81;5065605;28;20097;-77
2022/11/30 05:05:33;;;;;;;30.83;17.75;;;;;;;4.27;100.00;101527.13;5061064;28;20487;-76
2022/11/30 05:08:00;;;;;;;31.05;16.02;;;;;;;4.27;100.00;101527.13;5065050;28;20060;-77
2022/11/30 05:10:28;;;;;;;26.75;15.38;;;;;;;4.29;100.00;101530.66;5058799;28;20556;-76
2022/11/30 05:12:56;;;;;;;26.42;14.65;;;;;;;4.31;100.00;101530.72;5061546;28;20047;-77
2022/11/30 05:15:23;;;;;;;31.30;13.85;;;;;;;4.31;100.00;101525.53;5061063;28;20044;-77
2022/11/30 05:17:50;;;;;;;29.63;14.30;;;;;;;4.32;100.00;101526.44;5048755;28;20080;-76
2022/11/30 05:20:19;;;;;;;35.03;15.70;;;;;;;4.32;100.00;101532.47;5060949;28;20056;-76
2022/11/30 05:22:46;;;;;;;29.63;14.77;;;;;;;4.32;100.00;101531.59;5045535;28;20058;-76
2022/11/30 05:25:12;;;;;;;33.10;16.67;;;;;;;4.33;100.00;101535.94;5063802;28;20478;-76
2022/11/30 05:27:39;;;;;;;34.85;15.63;;;;;;;4.32;100.00;101540.25;5050286;28;20204;-77
2022/11/30 05:30:06;;;;;;;32.65;16.67;;;;;;;4.33;100.00;101541.13;5067140;28;20044;-77
2022/11/30 05:32:33;;;;;;;33.15;16.23;;;;;;;4.32;100.00;101545.44;5071405;28;20059;-77
2022/11/30 05:35:00;;;;;;;33.97;16.52;;;;;;;4.34;100.00;101546.38;5069546;28;20618;-78
2022/11/30 05:37:26;;;;;;;34.70;17.20;;;;;;;4.34;100.00;101550.66;5055790;28;20722;-78
2022/11/30 05:39:53;;;;;;;38.63;17.15;;;;;;;4.30;100.00;101553.16;5056366;28;20040;-78
2022/11/30 05:42:19;;;;;;;35.63;16.65;;;;;;;4.28;100.00;101548.78;5070573;28;20047;-76
2022/11/30 05:44:46;;;;;;;34.30;16.23;;;;;;;4.25;100.00;101549.56;5073741;28;20734;-77
2022/11/30 05:47:16;;;;;;;35.35;16.35;;;;;;;4.24;100.00;101552.97;5070648;28;20046;-78
2022/11/30 05:49:43;;;;;;;37.20;17.40;;;;;;;4.22;100.00;101554.63;5075510;28;20170;-78
2022/11/30 05:52:10;;;;;;;33.28;16.10;;;;;;;4.20;100.00;101551.13;5083035;28;20036;-78
2022/11/30 05:54:36;;;;;;;50.80;23.60;;;;;;;4.22;100.00;101553.75;5077086;28;20050;-78
2022/11/30 05:57:04;;;;;;;41.55;18.52;;;;;;;4.21;100.00;101555.47;5073313;28;20036;-77
2022/11/30 05:59:30;;;;;;;40.05;17.90;;;;;;;4.23;100.00;101561.56;5072213;28;20044;-77
2022/11/30 06:01:57;;;;;;;41.17;16.48;;;;;;;4.24;100.00;101558.16;5070451;28;20036;-77
2022/11/30 06:04:23;;;;;;;37.78;18.10;;;;;;;4.24;100.00;101557.28;5070911;28;20043;-76
2022/11/30 06:06:54;;;;;;;38.72;17.92;;;;;;;4.24;100.00;101557.28;5053162;28;20054;-77
2022/11/30 06:09:21;;;;;;;33.55;16.17;;;;;;;4.25;100.00;101559.91;5051097;28;20696;-76
2022/11/30 06:11:47;;;;;;;32.67;17.40;;;;;;;4.23;100.00;101565.88;5068979;28;20040;-77
2022/11/30 06:14:14;;;;;;;37.95;21.33;;;;;;;4.24;100.00;101560.75;5071690;28;20146;-77
2022/11/30 06:16:40;;;;;;;37.05;18.15;;;;;;;4.24;100.00;101560.75;5069236;28;20046;-77
2022/11/30 06:19:07;;;;;;;33.58;17.13;;;;;;;4.24;100.00;101565.94;5074012;28;20592;-77
2022/11/30 06:21:34;;;;;;;40.40;17.58;;;;;;;4.26;100.00;101564.28;5070100;28;20040;-77
2022/11/30 06:24:00;;;;;;;41.97;18.50;;;;;;;4.28;100.00;101565.19;5070618;28;20522;-77
2022/11/30 06:26:30;;;;;;;32.33;17.58;;;;;;;4.28;100.00;101570.38;5069839;28;20686;-77
2022/11/30 06:28:56;;;;;;;26.08;14.18;;;;;;;4.29;100.00;101568.69;5066934;28;20421;-77
2022/11/30 06:31:23;;;;;;;39.50;18.85;;;;;;;4.30;100.00;101583.38;5085963;28;20047;-77
2022/11/30 06:33:49;;;;;;;38.33;18.23;;;;;;;4.29;100.00;101574.72;5068995;28;20446;-77
2022/11/30 06:36:22;;;;;;;35.45;16.92;;;;;;;4.30;100.00;101576.50;5068158;28;20074;-77
2022/11/30 06:38:49;;;;;;;38.17;17.40;;;;;;;4.31;100.00;101579.97;5068304;28;20064;-74
2022/11/30 06:41:15;;;;;;;36.42;17.85;;;;;;;4.32;100.00;101581.72;5069715;28;20044;-77
2022/11/30 06:43:44;;;;;;;36.47;17.58;;;;;;;4.32;100.00;101581.72;5065376;28;20047;-76
2022/11/30 06:46:11;;;;;;;34.53;16.42;;;;;;;4.29;100.00;101587.69;5067481;28;20056;-77
2022/11/30 06:48:37;;;;;;;33.70;16.83;;;;;;;4.30;100.00;101594.66;5086306;28;20040;-76
2022/11/30 06:51:09;;;;;;;31.65;16.42;;;;;;;4.28;100.00;101591.09;5067479;28;20032;-76
2022/11/30 06:53:36;;;;;;;34.63;16.65;;;;;;;4.30;100.00;101588.56;5069665;28;20144;-76
2022/11/30 06:56:10;;;;;;;39.13;18.73;;;;;;;4.30;100.00;101588.56;5062233;28;20052;-79
2022/11/30 06:58:38;;;;;;;36.95;16.52;;;;;;;4.32;100.00;101597.28;5083080;28;20113;-76
2022/11/30 07:01:07;;;;;;;37.33;17.23;;;;;;;4.35;100.00;101596.50;5081578;28;20063;-76
2022/11/30 07:03:34;;;;;;;40.03;18.48;;;;;;;4.32;100.00;101602.47;5086573;28;20035;-78
2022/11/30 07:06:00;;;;;;;38.53;17.25;;;;;;;4.29;100.00;101604.97;5067689;28;20115;-76
2022/11/30 07:08:27;;;;;;;32.05;16.98;;;;;;;4.26;100.00;101604.84;5070196;28;20410;-77
2022/11/30 07:10:54;;;;;;;38.35;17.45;;;;;;;4.27;100.00;101606.63;5066420;28;20044;-76
2022/11/30 07:13:20;;;;;;;31.13;15.52;;;;;;;4.27;100.00;101609.22;5070500;28;20040;-77
2022/11/30 07:15:47;;;;;;;38.22;17.70;;;;;;;4.29;100.00;101608.44;5067406;28;20492;-77
2022/11/30 07:18:13;;;;;;;36.55;18.65;;;;;;;4.30;100.00;101614.47;5089243;28;20048;-78
2022/11/30 07:20:40;;;;;;;29.70;14.65;;;;;;;4.29;100.00;101618.78;5085845;28;20273;-77
2022/11/30 07:26:08;;;;;;;36.15;17.92;;;;;;;4.32;100.00;101618.00;5101080;28;20055;-76
2022/11/30 07:28:37;;;;;;;34.55;19.27;;;;;;;4.33;100.00;101617.19;5084808;28;20092;-78
2022/11/30 07:31:33;;;;;;;35.40;17.50;;;;;;;4.39;100.00;101614.78;5106365;28;20047;-75
2022/11/30 07:34:05;;;;;;;30.85;16.67;;;;;;;4.38;100.00;101620.81;5110992;27;20036;-78
2022/11/30 07:36:32;;;;;;;33.17;15.32;;;;;;;4.39;100.00;101612.19;5098434;28;20036;-76
2022/11/30 07:38:59;;;;;;;35.33;17.83;;;;;;;4.38;100.00;101618.22;5106713;27;20039;-76
2022/11/30 07:41:26;;;;;;;32.00;17.60;;;;;;;4.39;100.00;101616.50;5101784;28;20071;-76
2022/11/30 07:43:53;;;;;;;37.42;18.65;;;;;;;4.41;100.00;101620.03;5098071;28;20063;-78
2022/11/30 07:46:19;;;;;;;36.60;18.70;;;;;;;4.42;100.00;101621.75;5098488;28;20043;-77
2022/11/30 07:48:47;;;;;;;40.30;17.77;;;;;;;4.43;100.00;101624.44;5106516;28;20153;-76
2022/11/30 07:51:20;;;;;;;44.88;17.88;;;;;;;4.42;100.00;101632.13;5105085;28;20075;-76
2022/11/30 07:53:47;;;;;;;34.83;17.27;;;;;;;4.43;100.00;101628.72;5092248;28;20032;-79
2022/11/30 07:56:17;;;;;;;40.15;19.05;;;;;;;4.49;100.00;101634.09;5096234;28;20067;-78
2022/11/30 07:58:45;;;;;;;46.40;21.40;;;;;;;4.48;100.00;101627.16;5106838;28;20424;-76
2022/11/30 08:01:18;;;;;;;39.58;17.55;;;;;;;4.46;100.00;101636.63;5102109;28;20043;-78
2022/11/30 08:03:45;;;;;;;37.10;19.23;;;;;;;4.46;100.00;101637.47;5097659;28;20044;-77
2022/11/30 08:06:15;;;;;;;42.47;20.38;;;;;;;4.49;100.00;101636.69;5092646;28;20099;-78
2022/11/30 08:08:52;;;;;;;41.95;18.73;;;;;;;4.48;100.00;101647.91;5064209;28;20043;-78
2022/11/30 08:11:22;;;;;;;36.90;17.48;;;;;;;4.48;100.00;101645.31;5084049;28;20040;-78
2022/11/30 08:13:49;;;;;;;37.03;18.88;;;;;;;4.50;100.00;101645.34;5112844;27;20035;-76
2022/11/30 08:16:19;;;;;;;37.15;18.65;;;;;;;4.50;100.00;101647.94;5083416;28;20040;-76
2022/11/30 08:18:49;;;;;;;37.83;19.65;;;;;;;4.50;100.00;101648.84;5102358;28;20062;-77
2022/11/30 08:21:19;;;;;;;46.97;21.35;;;;;;;4.51;100.00;101647.13;5101237;28;20040;-77
2022/11/30 08:23:54;;;;;;;43.85;19.13;;;;;;;4.55;100.00;101642.09;5097121;28;20047;-78
2022/11/30 08:26:33;;;;;;;40.03;20.27;;;;;;;4.58;100.00;101641.31;5095230;28;20047;-76
2022/11/30 08:29:02;;;;;;;34.88;18.67;;;;;;;4.58;100.00;101643.91;5100172;28;20038;-78
2022/11/30 08:31:33;;;;;;;43.67;20.80;;;;;;;4.59;100.00;101651.72;5081042;28;20530;-76
2022/11/30 08:34:12;;;;;;;48.30;20.58;;;;;;;4.61;100.00;101650.03;5110939;27;20035;-76
2022/11/30 08:36:40;;;;;;;39.20;18.10;;;;;;;4.59;100.00;101662.09;5099062;28;20038;-78
2022/11/30 08:39:12;;;;;;;35.58;17.63;;;;;;;4.59;100.00;101661.22;5099807;28;20131;-76
2022/11/30 08:41:41;;;;;;;48.67;21.40;;;;;;;4.62;100.00;101658.72;5072942;28;20086;-77
2022/11/30 08:44:10;;;;;;;45.53;20.40;;;;;;;4.62;100.00;101669.97;5106572;28;20703;-79
2022/11/30 08:46:38;;;;;;;39.53;20.23;;;;;;;4.62;100.00;101661.31;5103784;28;20859;-76
2022/11/30 08:49:05;;;;;;;45.90;20.02;;;;;;;4.63;100.00;101665.69;5097397;28;20034;-77
2022/11/30 08:51:32;;;;;;;46.72;20.60;;;;;;;4.66;100.00;101672.69;5096416;28;20040;-76
2022/11/30 08:53:59;;;;;;;38.05;18.65;;;;;;;4.68;100.00;101676.19;5094744;28;20052;-77
2022/11/30 08:56:26;;;;;;;46.17;22.50;;;;;;;4.71;100.00;101678.88;5093015;28;20051;-75
2022/11/30 08:58:54;;;;;;;41.97;21.58;;;;;;;4.70;100.00;101682.31;5083178;28;20048;-76
2022/11/30 09:01:24;;;;;;;45.38;20.38;;;;;;;4.72;100.00;101678.94;5095101;28;20040;-76
2022/11/30 09:03:55;;;;;;;42.53;19.60;;;;;;;4.75;100.00;101685.94;5074432;28;20477;-75
2022/11/30 09:06:29;;;;;;;46.80;21.25;;;;;;;4.77;100.00;101682.56;5092485;28;20046;-76
2022/11/30 09:09:09;;;;;;;45.20;21.77;;;;;;;4.77;100.00;101690.34;5092959;28;20032;-78
2022/11/30 09:11:36;;;;;;;41.78;21.25;;;;;;;4.77;100.00;101687.75;5079386;28;20405;-78
2022/11/30 09:14:04;;;;;;;50.22;22.40;;;;;;;4.79;100.00;101691.25;5106005;27;20130;-77
2022/11/30 09:16:31;;;;;;;50.83;22.30;;;;;;;4.82;100.00;101690.47;5088474;28;20658;-76
2022/11/30 09:18:58;;;;;;;43.50;20.83;;;;;;;4.85;100.00;101693.16;5081949;28;20043;-75
2022/11/30 09:21:25;;;;;;;41.83;21.17;;;;;;;4.89;100.00;101687.25;5089990;28;20466;-76
2022/11/30 09:23:53;;;;;;;48.92;22.45;;;;;;;4.92;100.00;101689.91;5097119;28;20135;-76
2022/11/30 09:26:23;;;;;;;44.92;22.33;;;;;;;4.91;100.00;101693.34;5096745;28;20089;-77
2022/11/30 09:28:51;;;;;;;43.75;20.50;;;;;;;4.93;100.00;101689.09;5092136;28;20040;-78
2022/11/30 09:31:24;;;;;;;49.42;22.33;;;;;;;4.97;100.00;101697.84;5105385;28;20130;-78
2022/11/30 09:33:53;;;;;;;49.92;22.35;;;;;;;5.01;100.00;101691.06;5094729;28;20042;-76
2022/11/30 09:36:21;;;;;;;51.38;22.77;;;;;;;4.99;100.00;101700.50;5103117;28;20040;-76
2022/11/30 09:38:48;;;;;;;43.05;20.98;;;;;;;5.00;100.00;101694.47;5102356;28;20526;-78
2022/11/30 09:41:58;;;;;;;44.78;21.60;;;;;;;5.01;100.00;101696.25;5090936;28;20043;-78
2022/11/30 09:44:34;;;;;;;52.40;25.95;;;;;;;5.00;100.00;101687.56;5102268;28;20501;-78
2022/11/30 09:47:41;;;;;;;47.22;22.83;;;;;;;5.01;100.00;101691.06;5105565;28;20059;-78
2022/11/30 09:50:16;;;;;;;44.50;21.77;;;;;;;5.06;100.00;101692.03;5093564;28;20044;-77
2022/11/30 09:52:47;;;;;;;89.03;24.50;;;;;;;5.10;100.00;101689.59;5074698;28;20062;-77
2022/11/30 09:55:29;;;;;;;45.80;22.33;;;;;;;5.18;100.00;101689.84;5077145;28;20949;-77
2022/11/30 09:58:05;;;;;;;48.38;23.27;;;;;;;5.27;100.00;101687.50;5095576;28;20051;-78
2022/11/30 10:00:35;;;;;;;48.30;20.83;;;;;;;5.31;100.00;101683.28;5096850;28;20040;-76
2022/11/30 10:03:05;;;;;;;58.83;25.70;;;;;;;5.40;100.00;101685.28;5101697;28;20121;-76
2022/11/30 10:05:49;;;;;;;45.35;22.33;;;;;;;5.36;100.00;101683.41;5093752;28;20059;-77
2022/11/30 10:08:41;;;;;;;46.40;20.38;;;;;;;5.35;100.00;101686.88;5092364;28;20495;-76
2022/11/30 10:11:39;;;;;;;56.83;21.38;;;;;;;5.36;100.00;101684.31;5091885;28;20049;-77
2022/11/30 10:14:50;;;;;;;51.83;23.77;;;;;;;5.36;100.00;101691.19;5108015;27;20042;-77
2022/11/30 10:17:57;;;;;;;49.47;22.35;;;;;;;5.35;100.00;101687.75;5110671;27;20755;-76
2022/11/30 10:20:48;;;;;;;58.53;22.25;;;;;;;5.40;100.00;101682.69;5094952;28;20050;-77
2022/11/30 10:23:42;;;;;;;38.72;17.95;;;;;;;5.40;100.00;101686.16;5099858;28;20148;-77
2022/11/30 10:26:15;;;;;;;46.15;21.95;;;;;;;5.44;100.00;101681.94;5095276;27;20126;-76
2022/11/30 10:28:55;;;;;;;45.08;19.75;;;;;;;5.46;100.00;101675.94;5109515;27;20226;-77
2022/11/30 10:31:34;;;;;;;44.35;20.13;;;;;;;5.47;100.00;101679.41;5093077;28;20042;-78
2022/11/30 10:34:21;;;;;;;50.65;24.23;;;;;;;5.46;100.00;101683.75;5098732;27;20050;-75
2022/11/30 10:37:13;;;;;;;45.05;22.90;;;;;;;5.46;100.00;101678.56;5089381;28;21957;-77
2022/11/30 10:40:09;;;;;;;49.00;21.42;;;;;;;5.46;100.00;101678.56;5102113;27;20122;-76
2022/11/30 10:42:55;;;;;;;45.40;21.33;;;;;;;5.49;100.00;101684.66;5111945;27;20035;-77
2022/11/30 10:45:24;;;;;;;49.88;21.90;;;;;;;5.47;100.00;101680.31;5094978;28;20486;-77
2022/11/30 10:48:14;;;;;;;59.17;25.02;;;;;;;5.41;100.00;101685.31;5100152;27;20039;-78
2022/11/30 10:50:41;;;;;;;54.13;24.27;;;;;;;5.34;100.00;101683.38;5090622;28;20695;-77
2022/11/30 10:53:12;;;;;;;52.65;23.20;;;;;;;5.31;100.00;101678.09;5100588;28;20165;-78
2022/11/30 10:55:43;;;;;;;59.30;25.88;;;;;;;5.27;100.00;101671.94;5078191;28;20044;-77
2022/11/30 10:58:33;;;;;;;53.85;24.20;;;;;;;5.28;100.00;101681.50;5084800;28;20066;-77
2022/11/30 11:01:09;;;;;;;49.63;23.35;;;;;;;5.29;100.00;101675.47;5093003;28;20122;-76
2022/11/30 11:03:36;;;;;;;61.10;27.95;;;;;;;5.30;100.00;101678.94;5096414;28;20105;-76
2022/11/30 11:06:24;;;;;;;56.45;24.27;;;;;;;5.33;100.00;101681.59;5089793;28;20450;-78
2022/11/30 11:08:52;;;;;;;54.70;23.35;;;;;;;5.35;100.00;101689.47;5089870;27;20042;-77
2022/11/30 11:11:38;;;;;;;53.38;23.13;;;;;;;5.34;100.00;101695.50;5076860;28;20061;-76
2022/11/30 11:14:18;;;;;;;48.38;23.70;;;;;;;5.32;100.00;101690.25;5099228;28;20122;-76
2022/11/30 11:16:54;;;;;;;43.78;21.00;;;;;;;5.30;100.00;101697.09;5101389;27;20084;-79
2022/11/30 11:19:42;;;;;;;54.55;25.70;;;;;;;5.31;100.00;101696.28;5107414;27;20051;-79
2022/11/30 11:22:24;;;;;;;56.83;25.63;;;;;;;5.30;100.00;101700.56;5097184;28;20395;-78
2022/11/30 11:25:23;;;;;;;54.92;26.00;;;;;;;5.32;100.00;101700.63;5076783;28;20036;-76
2022/11/30 11:27:55;;;;;;;51.33;23.90;;;;;;;5.33;100.00;101707.56;5092225;28;20040;-77
2022/11/30 11:30:31;;;;;;;59.97;25.10;;;;;;;5.32;100.00;101705.84;5083322;28;20050;-79
2022/11/30 11:33:11;;;;;;;47.70;23.00;;;;;;;5.34;100.00;101711.06;5072891;28;20071;-78
2022/11/30 11:35:49;;;;;;;52.60;24.05;;;;;;;5.34;100.00;101704.16;5091574;28;20131;-78